Time;durP1;ratioP1;P1;durP2;ratioP2;P2;SDS_P1;SDS_P2;PMS_P1;PMS_P2;Temp;Humidity;BMP_temperature;BMP_pressure;BME280_temperature;BME280_humidity;BME280_pressure;Samples;Min_cycle;Max_cycle;Signal;HPM_P1;HPM_P2
2022/05/26 00:02:05;;;;;;;0.10;0.10;;;13.00;99.90;;;;;;5052884;28;20043;-84
2022/05/26 00:04:32;;;;;;;0.00;0.00;;;13.00;99.90;;;;;;5069790;28;20056;-84
2022/05/26 00:06:59;;;;;;;0.00;0.00;;;13.10;99.90;;;;;;5053090;28;20076;-84
2022/05/26 00:09:25;;;;;;;0.00;0.00;;;13.10;99.90;;;;;;5049931;28;20049;-84
2022/05/26 00:11:52;;;;;;;0.20;0.10;;;13.00;99.90;;;;;;5033450;28;20084;-85
2022/05/26 00:14:19;;;;;;;0.00;0.00;;;13.10;99.90;;;;;;5049638;28;20568;-84
2022/05/26 00:16:46;;;;;;;0.03;0.03;;;13.10;99.90;;;;;;5049824;28;20037;-85
2022/05/26 00:19:16;;;;;;;0.00;0.00;;;13.10;99.90;;;;;;5059331;28;20037;-84
2022/05/26 00:32:49;;;;;;;0.20;0.10;;;13.10;99.90;;;;;;5083942;28;20536;-84
2022/05/26 00:35:16;;;;;;;0.00;0.00;;;13.10;99.90;;;;;;5079756;28;20053;-84
2022/05/26 00:37:43;;;;;;;0.10;0.10;;;13.10;99.90;;;;;;5056239;28;20075;-85
2022/05/26 00:40:12;;;;;;;0.10;0.10;;;13.10;99.90;;;;;;5072943;28;20109;-85
2022/05/26 00:42:40;;;;;;;0.43;0.30;;;13.10;99.90;;;;;;5060380;28;20033;-84
2022/05/26 00:45:08;;;;;;;0.10;0.10;;;13.10;99.90;;;;;;5085688;28;20041;-85
2022/05/26 00:47:41;;;;;;;0.10;0.10;;;13.10;99.90;;;;;;5052549;28;20095;-84
2022/05/26 00:50:21;;;;;;;0.00;0.00;;;13.10;99.90;;;;;;5069265;28;20512;-85
2022/05/26 00:52:53;;;;;;;0.10;0.10;;;13.10;99.90;;;;;;5069192;28;20044;-84
2022/05/26 00:55:31;;;;;;;0.10;0.10;;;13.10;99.90;;;;;;5069081;28;20501;-85
2022/05/26 00:58:01;;;;;;;0.00;0.00;;;13.10;99.90;;;;;;5069207;28;20497;-85
2022/05/26 01:00:31;;;;;;;0.10;0.10;;;13.00;99.90;;;;;;5068966;28;20127;-84
2022/05/26 01:03:04;;;;;;;0.00;0.00;;;13.10;99.90;;;;;;5079645;28;20119;-84
2022/05/26 01:06:08;;;;;;;0.00;0.00;;;13.10;99.90;;;;;;5088969;28;20041;-85
2022/05/26 01:08:54;;;;;;;0.00;0.00;;;13.10;99.90;;;;;;5088979;28;20117;-84
2022/05/26 01:11:23;;;;;;;0.38;0.30;;;13.00;99.90;;;;;;5089312;28;20052;-84
2022/05/26 01:13:55;;;;;;;0.28;0.22;;;13.00;99.90;;;;;;5089731;28;20047;-85
2022/05/26 01:16:37;;;;;;;0.00;0.00;;;13.00;99.90;;;;;;5088906;28;20136;-84
2022/05/26 01:19:30;;;;;;;0.10;0.10;;;13.00;99.90;;;;;;5106125;28;20040;-84
2022/05/26 01:22:27;;;;;;;0.10;0.10;;;13.00;99.90;;;;;;5088997;28;20040;-84
2022/05/26 01:24:58;;;;;;;0.00;0.00;;;13.00;99.90;;;;;;5088942;28;20045;-84
2022/05/26 01:27:40;;;;;;;0.10;0.10;;;13.00;99.90;;;;;;5105314;28;20048;-84
2022/05/26 01:30:24;;;;;;;0.00;0.00;;;13.00;99.90;;;;;;5088949;28;20489;-84
2022/05/26 01:33:23;;;;;;;0.13;0.10;;;13.00;99.90;;;;;;5090368;28;20114;-85
2022/05/26 01:36:31;;;;;;;0.20;0.20;;;13.10;99.90;;;;;;5095378;28;20127;-85
2022/05/26 01:39:28;;;;;;;0.00;0.00;;;13.10;99.90;;;;;;5071167;28;20413;-84
2022/05/26 01:42:18;;;;;;;0.10;0.10;;;13.10;99.90;;;;;;5092362;28;20040;-85
2022/05/26 01:45:05;;;;;;;0.13;0.10;;;13.10;99.90;;;;;;5055650;28;20135;-84
2022/05/26 01:47:47;;;;;;;0.08;0.08;;;13.10;99.90;;;;;;5072006;28;20395;-84
2022/05/26 01:50:13;;;;;;;0.10;0.10;;;13.10;99.90;;;;;;5072397;28;20167;-85
2022/05/26 01:52:58;;;;;;;0.20;0.20;;;13.10;99.90;;;;;;5057722;28;20780;-84
2022/05/26 01:55:31;;;;;;;0.00;0.00;;;13.10;99.90;;;;;;5091847;28;20036;-85
2022/05/26 01:58:03;;;;;;;0.00;0.00;;;13.10;99.90;;;;;;5075599;28;20044;-84
2022/05/26 02:00:31;;;;;;;0.10;0.10;;;13.20;99.90;;;;;;5075654;28;20040;-84
2022/05/26 02:03:07;;;;;;;0.10;0.10;;;13.10;99.90;;;;;;5075522;28;20043;-84
2022/05/26 02:05:41;;;;;;;0.00;0.00;;;13.10;99.90;;;;;;5092037;28;20044;-85
2022/05/26 02:08:31;;;;;;;0.10;0.10;;;13.10;99.90;;;;;;5092035;28;20091;-85
2022/05/26 02:11:19;;;;;;;0.03;0.03;;;13.10;99.90;;;;;;5091889;28;20486;-84
2022/05/26 02:13:51;;;;;;;0.00;0.00;;;13.10;99.90;;;;;;5091819;28;20409;-84
2022/05/26 02:16:34;;;;;;;0.55;0.30;;;13.10;99.90;;;;;;5091783;28;20040;-84
2022/05/26 02:19:34;;;;;;;0.30;0.30;;;13.10;99.90;;;;;;5091769;28;20386;-85
2022/05/26 02:22:14;;;;;;;0.10;0.10;;;13.10;99.90;;;;;;5075047;28;20096;-84
2022/05/26 02:24:47;;;;;;;0.08;0.08;;;13.10;99.90;;;;;;5074959;28;20127;-84
2022/05/26 02:27:14;;;;;;;0.00;0.00;;;13.10;99.90;;;;;;5074969;28;20047;-84
2022/05/26 02:29:52;;;;;;;0.10;0.10;;;13.10;99.90;;;;;;5074786;28;20036;-85
2022/05/26 02:32:28;;;;;;;0.10;0.10;;;13.00;99.90;;;;;;5091472;28;20086;-85
2022/05/26 02:34:58;;;;;;;0.15;0.15;;;13.10;99.90;;;;;;5074468;28;20057;-84
2022/05/26 02:37:26;;;;;;;0.13;0.10;;;13.10;99.90;;;;;;5075139;28;20047;-84
2022/05/26 02:39:53;;;;;;;0.10;0.10;;;13.10;99.90;;;;;;5074484;28;20048;-85
2022/05/26 02:42:21;;;;;;;0.15;0.15;;;13.10;99.90;;;;;;5074748;28;20041;-85
2022/05/26 02:44:48;;;;;;;0.13;0.13;;;13.10;99.90;;;;;;5056704;28;20516;-85
2022/05/26 02:47:46;;;;;;;0.17;0.10;;;13.10;99.90;;;;;;5091194;28;20044;-85
2022/05/26 02:50:38;;;;;;;0.00;0.00;;;13.10;99.90;;;;;;5074650;28;20048;-84
2022/05/26 02:53:42;;;;;;;0.20;0.20;;;13.10;99.90;;;;;;5091500;28;20040;-84
2022/05/26 02:56:23;;;;;;;0.00;0.00;;;13.10;99.90;;;;;;5085996;28;20041;-84
2022/05/26 02:59:11;;;;;;;0.00;0.00;;;13.10;99.90;;;;;;5091122;28;20040;-85
2022/05/26 03:01:52;;;;;;;0.00;0.00;;;13.10;99.90;;;;;;5090686;28;20048;-84
2022/05/26 03:04:35;;;;;;;0.47;0.30;;;13.10;99.90;;;;;;5090467;28;20096;-84
2022/05/26 03:07:11;;;;;;;0.00;0.00;;;13.20;99.90;;;;;;5090879;28;20040;-84
2022/05/26 03:09:38;;;;;;;;;;;13.20;99.90;;;;;;5091209;28;20051;-85
2022/05/26 03:12:18;;;;;;;0.10;0.10;;;13.10;99.90;;;;;;5090183;28;19924;-84
2022/05/26 03:14:45;;;;;;;0.10;0.10;;;13.20;99.90;;;;;;5070126;28;20072;-84
2022/05/26 03:17:12;;;;;;;0.10;0.10;;;13.10;99.90;;;;;;5057261;28;20076;-84
2022/05/26 03:19:38;;;;;;;0.10;0.10;;;13.10;99.90;;;;;;5056684;28;20033;-84
2022/05/26 03:22:05;;;;;;;0.00;0.00;;;13.10;99.90;;;;;;5073975;28;20032;-84
2022/05/26 03:24:33;;;;;;;0.13;0.10;;;13.10;99.90;;;;;;5090203;28;20520;-84
2022/05/26 03:26:59;;;;;;;0.00;0.00;;;13.00;99.90;;;;;;5057103;28;20186;-84
2022/05/26 03:29:26;;;;;;;0.00;0.00;;;13.00;99.90;;;;;;5056998;28;20618;-84
2022/05/26 03:31:53;;;;;;;0.00;0.00;;;13.00;99.90;;;;;;5073286;28;20044;-85
2022/05/26 03:42:35;;;;;;;0.10;0.00;;;13.00;99.90;;;;;;5106947;28;20044;-84
2022/05/26 03:45:03;;;;;;;0.05;0.05;;;13.00;99.90;;;;;;5089548;28;20394;-84
2022/05/26 03:47:31;;;;;;;0.00;0.00;;;12.90;99.90;;;;;;5090237;28;20041;-84
2022/05/26 03:49:57;;;;;;;0.10;0.10;;;12.90;99.90;;;;;;5089643;28;20548;-84
2022/05/26 03:52:24;;;;;;;0.10;0.10;;;12.90;99.90;;;;;;5056850;28;20048;-84
2022/05/26 03:54:51;;;;;;;0.00;0.00;;;12.90;99.90;;;;;;5072573;28;20036;-84
2022/05/26 03:57:23;;;;;;;0.15;0.15;;;12.90;99.90;;;;;;5073250;28;20045;-84
2022/05/26 03:59:50;;;;;;;0.10;0.10;;;13.00;99.90;;;;;;5072902;28;20036;-84
2022/05/26 04:02:17;;;;;;;0.00;0.00;;;13.00;99.90;;;;;;5073421;28;20154;-84
2022/05/26 04:04:44;;;;;;;0.00;0.00;;;13.00;99.90;;;;;;5075334;28;20515;-84
2022/05/26 04:07:12;;;;;;;0.00;0.00;;;13.00;99.90;;;;;;5057075;28;20588;-84
2022/05/26 04:09:42;;;;;;;0.70;0.20;;;13.00;99.90;;;;;;5073384;28;20044;-84
2022/05/26 04:12:11;;;;;;;0.00;0.00;;;13.00;99.90;;;;;;5089632;28;20452;-84
2022/05/26 04:14:38;;;;;;;0.20;0.20;;;13.00;99.90;;;;;;5089965;28;20041;-84
2022/05/26 04:17:05;;;;;;;0.20;0.20;;;12.90;99.90;;;;;;5072645;28;20585;-84
2022/05/26 04:19:32;;;;;;;0.00;0.00;;;12.90;99.90;;;;;;5056786;28;20131;-84
2022/05/26 04:24:50;;;;;;;1.38;0.60;;;12.90;99.90;;;;;;5074919;28;20490;-84
2022/05/26 04:27:19;;;;;;;0.10;0.10;;;12.90;99.90;;;;;;5089627;28;20044;-84
2022/05/26 04:29:46;;;;;;;0.08;0.08;;;12.90;99.90;;;;;;5072892;28;20048;-84
2022/05/26 04:32:12;;;;;;;0.13;0.13;;;12.90;99.90;;;;;;5056259;28;20072;-84
2022/05/26 04:34:40;;;;;;;0.08;0.08;;;12.90;99.90;;;;;;5074109;28;20041;-84
2022/05/26 04:37:07;;;;;;;0.00;0.00;;;12.90;99.90;;;;;;5056125;28;20044;-84
2022/05/26 04:39:34;;;;;;;0.00;0.00;;;12.90;99.90;;;;;;5072417;28;20094;-84
2022/05/26 04:42:03;;;;;;;0.00;0.00;;;12.90;99.90;;;;;;5072231;28;20047;-84
2022/05/26 04:44:37;;;;;;;0.03;0.03;;;12.90;99.90;;;;;;5052995;28;20048;-84
2022/05/26 04:47:04;;;;;;;0.13;0.13;;;13.00;99.90;;;;;;5052700;28;20045;-84
2022/05/26 04:49:31;;;;;;;0.10;0.10;;;13.00;99.90;;;;;;5052977;28;20045;-84
2022/05/26 04:51:58;;;;;;;0.00;0.00;;;12.90;99.90;;;;;;5068976;28;20098;-84
2022/05/26 04:54:25;;;;;;;0.10;0.10;;;13.00;99.90;;;;;;5036159;28;20072;-84
2022/05/26 04:56:57;;;;;;;0.13;0.10;;;13.00;99.90;;;;;;5052592;28;20072;-84
2022/05/26 04:59:25;;;;;;;0.10;0.10;;;13.00;99.90;;;;;;5068989;28;20485;-84
2022/05/26 05:01:52;;;;;;;0.00;0.00;;;13.00;99.90;;;;;;5052497;28;20462;-84
2022/05/26 05:04:23;;;;;;;0.10;0.10;;;13.00;99.90;;;;;;5038412;28;20037;-84
2022/05/26 05:06:50;;;;;;;0.00;0.00;;;13.00;99.90;;;;;;5105715;28;20032;-84
2022/05/26 05:09:17;;;;;;;0.00;0.00;;;13.00;99.90;;;;;;5093319;28;20508;-84
2022/05/26 05:11:44;;;;;;;0.00;0.00;;;13.00;99.90;;;;;;5076512;28;20076;-84
2022/05/26 05:14:12;;;;;;;0.00;0.00;;;13.00;99.90;;;;;;5092430;28;20722;-84
2022/05/26 05:16:44;;;;;;;0.00;0.00;;;13.10;99.90;;;;;;5076037;28;20048;-84
2022/05/26 05:19:17;;;;;;;0.00;0.00;;;13.10;99.90;;;;;;5092784;28;20048;-84
2022/05/26 05:22:01;;;;;;;0.00;0.00;;;13.10;99.90;;;;;;5092562;28;20048;-84
2022/05/26 05:24:35;;;;;;;0.00;0.00;;;13.20;99.90;;;;;;5108711;28;20520;-84
2022/05/26 05:27:22;;;;;;;0.17;0.15;;;13.20;99.90;;;;;;5092398;28;20094;-84
2022/05/26 05:29:51;;;;;;;0.20;0.20;;;13.20;99.90;;;;;;5092130;28;20083;-84
2022/05/26 05:32:34;;;;;;;0.10;0.10;;;13.20;99.90;;;;;;5092875;28;20040;-84
2022/05/26 05:35:10;;;;;;;0.10;0.10;;;13.20;99.90;;;;;;5089035;28;20524;-84
2022/05/26 05:37:37;;;;;;;0.03;0.03;;;13.20;99.90;;;;;;5075671;28;20059;-84
2022/05/26 05:40:04;;;;;;;0.00;0.00;;;13.20;99.90;;;;;;5058891;28;20040;-84
2022/05/26 05:42:31;;;;;;;0.00;0.00;;;13.20;99.90;;;;;;5075904;28;20050;-84
2022/05/26 05:44:58;;;;;;;0.05;0.05;;;13.20;99.90;;;;;;5058808;28;20127;-84
2022/05/26 05:47:25;;;;;;;0.00;0.00;;;13.20;99.90;;;;;;5075469;28;20041;-84
2022/05/26 05:49:52;;;;;;;0.10;0.10;;;13.20;99.90;;;;;;5075525;28;20135;-84
2022/05/26 05:52:23;;;;;;;0.00;0.00;;;13.30;99.90;;;;;;5058938;28;20044;-84
2022/05/26 05:54:50;;;;;;;0.00;0.00;;;13.20;99.90;;;;;;5059251;28;20033;-84
2022/05/26 05:57:18;;;;;;;0.45;0.30;;;13.30;99.90;;;;;;5091844;28;20461;-84
2022/05/26 05:59:44;;;;;;;0.00;0.00;;;13.30;99.90;;;;;;5076934;28;20029;-84
2022/05/26 06:02:11;;;;;;;0.00;0.00;;;13.30;99.90;;;;;;5038783;28;20068;-84
2022/05/26 06:04:44;;;;;;;0.00;0.00;;;13.40;99.90;;;;;;5092337;28;20041;-84
2022/05/26 06:07:16;;;;;;;0.00;0.00;;;13.40;99.90;;;;;;5108237;28;20493;-83
2022/05/26 06:09:43;;;;;;;0.00;0.00;;;13.50;99.90;;;;;;5080900;28;20040;-84
2022/05/26 06:12:11;;;;;;;0.00;0.00;;;13.40;99.90;;;;;;5076986;28;20037;-84
2022/05/26 06:14:38;;;;;;;0.00;0.00;;;13.50;99.90;;;;;;5075111;28;20044;-84
2022/05/26 06:17:09;;;;;;;0.03;0.03;;;13.60;99.90;;;;;;5075049;28;20043;-84
2022/05/26 06:19:37;;;;;;;0.10;0.10;;;13.60;99.90;;;;;;5091934;28;20036;-84
2022/05/26 06:22:15;;;;;;;0.00;0.00;;;13.70;99.90;;;;;;5064844;28;20387;-84
2022/05/26 06:24:42;;;;;;;0.10;0.10;;;13.70;99.90;;;;;;5069372;28;20040;-84
2022/05/26 06:29:57;;;;;;;0.00;0.00;;;13.90;99.90;;;;;;5071458;28;20052;-84
2022/05/26 06:37:57;;;;;;;0.10;0.10;;;14.00;99.90;;;;;;5107845;28;19916;-85
2022/05/26 06:40:24;;;;;;;0.05;0.05;;;14.10;99.90;;;;;;5074291;28;20048;-87
2022/05/26 06:42:50;;;;;;;0.10;0.10;;;14.10;99.90;;;;;;5074936;28;20115;-87
2022/05/26 06:45:19;;;;;;;0.10;0.10;;;14.20;99.90;;;;;;5069449;28;20055;-86
2022/05/26 06:47:46;;;;;;;0.22;0.10;;;14.30;99.90;;;;;;5074479;28;20468;-85
2022/05/26 06:50:14;;;;;;;0.00;0.00;;;14.40;99.90;;;;;;5058006;28;20052;-86
2022/05/26 06:52:41;;;;;;;0.05;0.05;;;14.40;99.90;;;;;;5058333;28;20379;-85
2022/05/26 06:55:08;;;;;;;0.00;0.00;;;14.50;99.90;;;;;;5073678;28;20090;-86
2022/05/26 06:57:35;;;;;;;0.00;0.00;;;14.50;99.90;;;;;;5091352;28;20036;-85
2022/05/26 07:00:06;;;;;;;0.00;0.00;;;14.60;99.90;;;;;;5073862;28;20043;-84
2022/05/26 07:02:34;;;;;;;0.00;0.00;;;14.70;99.90;;;;;;5074535;28;20032;-85
2022/05/26 07:05:02;;;;;;;0.00;0.00;;;14.80;99.90;;;;;;5074379;28;20044;-85
2022/05/26 07:07:28;;;;;;;0.10;0.10;;;14.90;99.90;;;;;;5074094;28;20040;-86
2022/05/26 07:09:56;;;;;;;0.08;0.00;;;15.00;99.90;;;;;;5058090;28;20036;-86
2022/05/26 07:12:23;;;;;;;0.00;0.00;;;15.00;99.90;;;;;;5057190;28;20063;-84
2022/05/26 07:14:51;;;;;;;0.00;0.00;;;15.10;99.90;;;;;;5057961;28;20036;-85
2022/05/26 07:17:18;;;;;;;0.20;0.10;;;15.20;99.90;;;;;;5054420;28;20041;-87
2022/05/26 07:19:45;;;;;;;0.08;0.08;;;15.40;99.90;;;;;;5054096;28;20074;-84
2022/05/26 07:22:13;;;;;;;0.00;0.00;;;15.50;99.90;;;;;;5070512;28;20128;-87
2022/05/26 07:24:41;;;;;;;0.10;0.10;;;15.50;99.90;;;;;;5038154;28;20045;-87
2022/05/26 07:27:08;;;;;;;0.00;0.00;;;15.50;99.90;;;;;;5062026;28;20040;-87
2022/05/26 07:29:35;;;;;;;0.10;0.10;;;15.50;99.90;;;;;;5073961;28;20032;-84
2022/05/26 07:32:03;;;;;;;0.22;0.20;;;15.60;99.90;;;;;;5065665;28;20044;-84
2022/05/26 07:34:29;;;;;;;0.00;0.00;;;15.50;99.90;;;;;;5053644;28;20158;-86
2022/05/26 07:42:32;;;;;;;0.00;0.00;;;15.20;99.90;;;;;;5076283;28;20041;-86
2022/05/26 07:45:00;;;;;;;0.10;0.10;;;15.20;99.90;;;;;;5073898;28;20063;-83
2022/05/26 07:47:27;;;;;;;0.00;0.00;;;15.20;99.90;;;;;;5056686;28;20093;-86
2022/05/26 07:49:55;;;;;;;0.00;0.00;;;15.20;99.90;;;;;;5076099;28;20485;-85
2022/05/26 07:52:22;;;;;;;0.05;0.05;;;15.30;99.90;;;;;;5057104;28;20060;-86
2022/05/26 07:54:49;;;;;;;0.00;0.00;;;15.30;99.90;;;;;;5069044;28;20109;-85
2022/05/26 07:57:22;;;;;;;0.00;0.00;;;15.30;99.90;;;;;;5036903;28;20046;-85
2022/05/26 07:59:50;;;;;;;0.10;0.10;;;15.20;99.90;;;;;;5067038;28;20029;-86
2022/05/26 08:02:18;;;;;;;0.00;0.00;;;15.50;99.90;;;;;;5069918;28;20048;-85
2022/05/26 08:04:45;;;;;;;0.10;0.10;;;15.60;99.90;;;;;;5063922;28;20051;-85
2022/05/26 08:07:13;;;;;;;0.10;0.10;;;15.80;99.90;;;;;;5050898;28;20498;-85
2022/05/26 08:09:40;;;;;;;0.00;0.00;;;16.10;99.90;;;;;;5063056;28;20086;-85
2022/05/26 08:12:10;;;;;;;0.00;0.00;;;16.20;99.90;;;;;;5038728;28;20041;-85
2022/05/26 08:14:38;;;;;;;0.00;0.00;;;16.30;99.90;;;;;;5063022;28;20045;-84
2022/05/26 08:17:05;;;;;;;0.00;0.00;;;16.30;99.90;;;;;;5068912;28;20036;-84
2022/05/26 08:19:32;;;;;;;0.00;0.00;;;16.40;99.90;;;;;;5058474;28;20041;-84
2022/05/26 08:21:59;;;;;;;0.10;0.10;;;16.40;99.90;;;;;;5072550;28;20051;-84
2022/05/26 08:24:26;;;;;;;0.00;0.00;;;16.40;99.90;;;;;;5088781;28;20041;-84
2022/05/26 08:26:53;;;;;;;0.10;0.00;;;16.50;99.90;;;;;;5089126;28;20537;-84
2022/05/26 08:29:20;;;;;;;0.00;0.00;;;16.60;99.90;;;;;;5055708;28;20123;-85
2022/05/26 08:31:46;;;;;;;0.20;0.10;;;16.70;99.90;;;;;;5055559;28;20038;-83
2022/05/26 08:34:13;;;;;;;0.03;0.03;;;16.70;99.90;;;;;;5079858;28;20037;-84
2022/05/26 08:36:40;;;;;;;0.00;0.00;;;16.70;99.90;;;;;;5057606;28;20057;-83
2022/05/26 08:39:07;;;;;;;0.00;0.00;;;16.90;99.90;;;;;;5087250;28;20039;-84
2022/05/26 08:41:37;;;;;;;0.03;0.03;;;16.80;99.90;;;;;;5067876;28;20722;-84
2022/05/26 08:44:10;;;;;;;0.00;0.00;;;16.90;99.90;;;;;;5070290;28;20036;-83
2022/05/26 08:47:05;;;;;;;0.00;0.00;;;17.10;99.90;;;;;;5067035;28;20043;-85
2022/05/26 08:49:52;;;;;;;0.32;0.10;;;17.20;99.90;;;;;;5076295;28;20409;-84
2022/05/26 08:52:37;;;;;;;0.00;0.00;;;17.30;99.90;;;;;;5095034;28;20076;-85
2022/05/26 08:55:23;;;;;;;0.10;0.10;;;17.20;99.90;;;;;;5070481;28;20485;-85
2022/05/26 08:57:58;;;;;;;0.05;0.05;;;17.20;99.90;;;;;;5084004;28;20032;-84
2022/05/26 09:00:26;;;;;;;0.10;0.10;;;17.40;99.90;;;;;;5093642;28;20037;-85
2022/05/26 09:02:59;;;;;;;0.10;0.10;;;17.40;99.90;;;;;;5068612;28;20040;-84
2022/05/26 09:05:32;;;;;;;0.40;0.30;;;17.50;99.90;;;;;;5064740;28;20509;-83
2022/05/26 09:14:03;;;;;;;0.00;0.00;;;17.50;99.90;;;;;;5048454;28;20045;-84
2022/05/26 09:16:34;;;;;;;0.00;0.00;;;17.50;99.90;;;;;;5079696;28;20493;-83
2022/05/26 09:19:11;;;;;;;0.08;0.08;;;17.60;99.90;;;;;;5084167;28;20047;-83
2022/05/26 09:21:38;;;;;;;0.00;0.00;;;17.60;99.90;;;;;;5092090;28;20040;-83
2022/05/26 09:24:26;;;;;;;0.00;0.00;;;17.60;99.90;;;;;;5055634;28;20051;-85
2022/05/26 09:26:59;;;;;;;0.00;0.00;;;17.60;99.90;;;;;;5092719;28;20091;-83
2022/05/26 09:29:32;;;;;;;0.00;0.00;;;17.60;99.90;;;;;;5098178;28;20044;-84
2022/05/26 09:32:00;;;;;;;0.40;0.30;;;17.70;99.90;;;;;;5092074;28;20055;-84
2022/05/26 09:34:34;;;;;;;0.00;0.00;;;17.90;99.90;;;;;;5076293;28;20854;-85
2022/05/26 09:37:05;;;;;;;0.10;0.10;;;18.10;99.90;;;;;;5075526;28;20094;-84
2022/05/26 09:39:39;;;;;;;0.10;0.10;;;18.00;99.90;;;;;;5074943;28;20523;-83
2022/05/26 09:42:27;;;;;;;0.00;0.00;;;17.90;99.90;;;;;;5075298;28;20059;-84
2022/05/26 09:45:10;;;;;;;0.00;0.00;;;17.70;99.90;;;;;;5086893;28;20079;-85
2022/05/26 09:47:39;;;;;;;0.00;0.00;;;17.80;99.90;;;;;;5073780;28;20037;-84
2022/05/26 09:50:28;;;;;;;0.10;0.10;;;18.10;99.90;;;;;;5075644;28;20048;-85
2022/05/26 09:52:55;;;;;;;0.05;0.05;;;18.20;99.90;;;;;;5056999;28;20079;-83
2022/05/26 09:55:28;;;;;;;0.00;0.00;;;18.20;99.90;;;;;;5053959;28;20533;-83
2022/05/26 09:58:28;;;;;;;0.00;0.00;;;18.20;99.90;;;;;;5067858;28;20131;-84
2022/05/26 10:00:58;;;;;;;0.00;0.00;;;18.30;99.90;;;;;;5082895;28;20037;-83
2022/05/26 10:03:34;;;;;;;0.00;0.00;;;18.60;99.90;;;;;;5068781;28;20044;-83
2022/05/26 10:06:45;;;;;;;0.03;0.00;;;18.50;99.90;;;;;;5091281;28;20516;-85
2022/05/26 10:09:44;;;;;;;0.00;0.00;;;18.40;99.90;;;;;;4978335;28;20050;-84
2022/05/26 10:12:25;;;;;;;0.00;0.00;;;18.50;99.90;;;;;;4989279;28;20046;-85
2022/05/26 10:15:16;;;;;;;0.10;0.05;;;18.40;99.90;;;;;;5074124;28;20118;-84
2022/05/26 10:18:04;;;;;;;0.15;0.15;;;18.30;99.90;;;;;;5074446;28;20056;-85
2022/05/26 10:20:41;;;;;;;0.00;0.00;;;18.20;99.90;;;;;;5087592;28;20557;-85
2022/05/26 10:23:29;;;;;;;0.00;0.00;;;18.20;99.90;;;;;;5091145;28;20032;-85
2022/05/26 10:26:18;;;;;;;0.00;0.00;;;18.30;99.90;;;;;;5075441;28;20041;-85
2022/05/26 10:29:00;;;;;;;0.00;0.00;;;18.40;99.90;;;;;;5070062;28;20071;-84
2022/05/26 10:31:37;;;;;;;0.00;0.00;;;18.80;99.90;;;;;;5091006;28;20036;-85
2022/05/26 10:34:22;;;;;;;0.00;0.00;;;18.90;99.90;;;;;;5091728;28;20041;-85
2022/05/26 10:37:32;;;;;;;0.10;0.10;;;19.00;99.90;;;;;;5078761;28;20512;-84
2022/05/26 10:40:21;;;;;;;0.10;0.10;;;19.10;99.90;;;;;;5062103;28;20037;-84
2022/05/26 10:43:04;;;;;;;0.98;0.28;;;19.30;99.90;;;;;;5090433;28;20043;-84
2022/05/26 10:45:39;;;;;;;0.05;0.05;;;19.00;99.90;;;;;;5089531;28;20131;-84
2022/05/26 10:48:41;;;;;;;0.10;0.10;;;19.00;99.90;;;;;;5091053;28;20040;-84
2022/05/26 10:51:34;;;;;;;0.00;0.00;;;19.00;99.90;;;;;;5039481;28;20048;-84
2022/05/26 10:54:33;;;;;;;0.00;0.00;;;19.10;99.90;;;;;;5053738;28;20040;-84
2022/05/26 10:57:17;;;;;;;0.05;0.05;;;19.20;99.90;;;;;;5085075;28;20044;-84
2022/05/26 11:00:15;;;;;;;0.00;0.00;;;19.10;99.90;;;;;;5074406;28;20043;-84
2022/05/26 11:02:58;;;;;;;0.00;0.00;;;19.20;99.90;;;;;;5067570;28;20044;-84
2022/05/26 11:05:38;;;;;;;0.00;0.00;;;19.20;99.90;;;;;;5088285;28;20047;-84
2022/05/26 11:08:23;;;;;;;0.10;0.10;;;19.20;99.90;;;;;;5067035;28;20491;-84
2022/05/26 11:11:02;;;;;;;0.00;0.00;;;19.10;99.90;;;;;;5081967;28;20043;-84
2022/05/26 11:13:55;;;;;;;0.13;0.10;;;18.90;99.90;;;;;;5065197;28;20045;-84
2022/05/26 11:19:39;;;;;;;0.08;0.08;;;19.20;99.90;;;;;;5090048;28;20133;-84
2022/05/26 11:22:10;;;;;;;0.00;0.00;;;19.30;99.90;;;;;;5073776;28;20033;-85
2022/05/26 11:24:38;;;;;;;0.00;0.00;;;19.20;99.90;;;;;;5090130;28;20044;-83
2022/05/26 11:27:29;;;;;;;0.10;0.00;;;18.90;99.90;;;;;;5090191;28;20405;-84
2022/05/26 11:30:00;;;;;;;0.00;0.00;;;18.80;99.90;;;;;;5086981;28;20037;-85
2022/05/26 11:38:16;;;;;;;0.00;0.00;;;19.00;99.90;;;;;;5098053;28;20041;-83
2022/05/26 11:41:02;;;;;;;0.00;0.00;;;18.80;99.90;;;;;;5099328;28;20041;-84
2022/05/26 11:43:37;;;;;;;0.20;0.20;;;18.80;99.90;;;;;;5106734;28;20032;-84
2022/05/26 11:46:03;;;;;;;0.00;0.00;;;19.00;99.90;;;;;;5090359;28;20040;-84
2022/05/26 11:48:30;;;;;;;0.00;0.00;;;19.10;99.90;;;;;;5056635;28;20409;-84
2022/05/26 11:51:20;;;;;;;0.30;0.20;;;19.10;99.90;;;;;;5089773;28;20037;-84
2022/05/26 11:53:48;;;;;;;0.00;0.00;;;19.00;99.90;;;;;;5072983;28;20123;-84
2022/05/26 11:56:24;;;;;;;2.03;0.20;;;18.80;99.90;;;;;;5062266;28;20042;-84
2022/05/26 11:59:18;;;;;;;0.20;0.15;;;18.70;99.90;;;;;;5082813;28;20345;-84
2022/05/26 12:01:58;;;;;;;0.20;0.20;;;18.50;99.90;;;;;;5098913;28;20071;-84
2022/05/26 12:04:39;;;;;;;0.10;0.10;;;18.40;99.90;;;;;;5072973;28;20401;-84
2022/05/26 12:07:26;;;;;;;0.20;0.20;;;18.50;99.90;;;;;;5056830;28;20123;-85
2022/05/26 12:10:20;;;;;;;0.03;0.03;;;18.50;99.90;;;;;;5053223;28;20048;-86
2022/05/26 12:12:47;;;;;;;0.10;0.10;;;18.40;99.90;;;;;;5069518;28;20113;-87
2022/05/26 12:15:21;;;;;;;0.10;0.10;;;18.30;99.90;;;;;;5036859;28;20179;-85
2022/05/26 12:17:50;;;;;;;0.20;0.10;;;18.40;99.90;;;;;;5079936;28;20401;-85
2022/05/26 12:20:17;;;;;;;0.20;0.20;;;18.30;99.90;;;;;;5073012;28;20055;-85
2022/05/26 12:22:49;;;;;;;0.00;0.00;;;18.30;99.90;;;;;;5089382;28;20036;-84
2022/05/26 12:25:34;;;;;;;0.10;0.10;;;18.20;99.90;;;;;;5089411;28;20489;-85
2022/05/26 12:28:10;;;;;;;0.00;0.00;;;18.30;99.90;;;;;;5089357;28;20040;-85
2022/05/26 12:30:43;;;;;;;0.10;0.10;;;18.10;99.90;;;;;;5106171;28;20037;-85
2022/05/26 12:33:19;;;;;;;0.10;0.00;;;17.90;99.90;;;;;;5089714;28;20047;-84
2022/05/26 12:36:04;;;;;;;0.15;0.10;;;17.90;99.90;;;;;;5088772;28;20055;-85
2022/05/26 12:39:05;;;;;;;0.03;0.03;;;17.80;99.90;;;;;;5089365;28;20041;-85
2022/05/26 12:41:56;;;;;;;0.00;0.00;;;17.70;99.90;;;;;;5089128;28;20068;-85
2022/05/26 12:44:40;;;;;;;0.00;0.00;;;17.90;99.90;;;;;;5073009;28;20036;-84
2022/05/26 12:47:38;;;;;;;0.00;0.00;;;18.20;99.90;;;;;;5072602;28;20082;-85
2022/05/26 12:50:06;;;;;;;0.10;0.10;;;18.40;99.90;;;;;;5072436;28;20033;-85
2022/05/26 12:52:44;;;;;;;0.03;0.03;;;18.20;99.90;;;;;;5072508;28;20527;-85
2022/05/26 12:55:41;;;;;;;0.10;0.10;;;18.20;99.90;;;;;;5088827;28;20048;-84
2022/05/26 12:58:26;;;;;;;0.10;0.10;;;18.10;99.90;;;;;;5088936;28;20059;-85
2022/05/26 13:00:55;;;;;;;0.00;0.00;;;17.90;99.90;;;;;;5072329;28;20036;-84
2022/05/26 13:03:47;;;;;;;0.08;0.08;;;17.90;99.90;;;;;;5072340;28;20090;-84
2022/05/26 13:06:20;;;;;;;0.13;0.13;;;18.20;99.90;;;;;;5096150;28;20048;-84
2022/05/26 13:09:08;;;;;;;0.80;0.65;;;18.30;99.90;;;;;;5105477;28;20041;-85
2022/05/26 13:11:48;;;;;;;1.80;1.10;;;18.20;99.90;;;;;;5089006;28;20405;-83
2022/05/26 13:14:41;;;;;;;0.68;0.63;;;18.20;99.90;;;;;;5089318;28;20138;-84
2022/05/26 13:17:17;;;;;;;0.10;0.10;;;18.30;99.90;;;;;;5080754;28;20520;-84
2022/05/26 13:19:49;;;;;;;0.30;0.10;;;18.20;99.90;;;;;;5088984;28;20036;-84
2022/05/26 13:22:34;;;;;;;0.00;0.00;;;18.00;99.90;;;;;;5106010;28;20032;-84
2022/05/26 13:25:15;;;;;;;0.03;0.03;;;17.90;99.90;;;;;;5088980;28;20036;-85
2022/05/26 13:27:46;;;;;;;0.00;0.00;;;17.70;99.90;;;;;;5088953;28;20095;-84
2022/05/26 13:33:08;;;;;;;0.00;0.00;;;17.80;99.90;;;;;;5092289;28;20072;-85
2022/05/26 13:35:49;;;;;;;0.15;0.10;;;17.80;99.90;;;;;;5075543;28;20178;-85
2022/05/26 13:38:28;;;;;;;0.10;0.10;;;17.60;99.90;;;;;;5092330;28;20497;-84
2022/05/26 13:40:57;;;;;;;0.10;0.10;;;17.50;99.90;;;;;;5075266;28;20040;-84
2022/05/26 13:43:24;;;;;;;0.40;0.40;;;17.40;99.90;;;;;;5075521;28;20037;-84
2022/05/26 13:45:53;;;;;;;0.32;0.20;;;17.50;99.90;;;;;;5059066;28;20055;-84
2022/05/26 13:48:21;;;;;;;0.28;0.20;;;17.60;99.90;;;;;;5106187;28;20046;-84
2022/05/26 13:50:51;;;;;;;0.10;0.08;;;17.70;99.90;;;;;;5108261;28;20544;-85
2022/05/26 13:53:19;;;;;;;0.10;0.10;;;17.50;99.90;;;;;;5092090;28;20440;-85
2022/05/26 13:55:47;;;;;;;0.00;0.00;;;17.50;99.90;;;;;;5100872;28;20123;-84
2022/05/26 13:58:18;;;;;;;0.35;0.20;;;17.40;99.90;;;;;;5074896;28;20041;-84
2022/05/26 14:00:45;;;;;;;0.10;0.10;;;17.40;99.90;;;;;;5091906;28;20080;-85
2022/05/26 14:03:27;;;;;;;0.10;0.03;;;17.50;99.90;;;;;;5058354;28;20060;-84
2022/05/26 14:06:02;;;;;;;0.00;0.00;;;17.50;99.90;;;;;;5074691;28;20574;-85
2022/05/26 14:08:29;;;;;;;0.20;0.10;;;17.40;99.90;;;;;;5076083;28;20133;-85
2022/05/26 14:10:57;;;;;;;0.32;0.20;;;17.30;99.90;;;;;;5057962;28;20444;-84
2022/05/26 14:13:29;;;;;;;0.20;0.20;;;17.30;99.90;;;;;;5081834;28;20037;-84
2022/05/26 14:16:18;;;;;;;0.10;0.10;;;17.30;99.90;;;;;;5090902;28;20037;-86
2022/05/26 14:18:50;;;;;;;0.00;0.00;;;17.40;99.90;;;;;;5076272;28;20480;-84
2022/05/26 14:21:33;;;;;;;0.00;0.00;;;17.40;99.90;;;;;;5087604;28;20460;-84